Time;durP1;ratioP1;P1;durP2;ratioP2;P2;SDS_P1;SDS_P2;PMS_P1;PMS_P2;Temp;Humidity;BMP_temperature;BMP_pressure;BME280_temperature;BME280_humidity;BME280_pressure;Samples;Min_cycle;Max_cycle;Signal;HPM_P1;HPM_P2
2022/01/13 00:00:50;;;;;;;74.17;31.33;;;;;;;0.34;100.00;104128.69;5069304;28;20112;-66
2022/01/13 00:03:15;;;;;;;77.20;31.57;;;;;;;0.31;100.00;104123.19;5062861;28;20051;-67
2022/01/13 00:05:40;;;;;;;88.97;32.40;;;;;;;0.33;100.00;104131.97;5068095;28;20032;-67
2022/01/13 00:08:06;;;;;;;72.43;29.20;;;;;;;0.31;100.00;104131.75;5064218;28;20047;-66
2022/01/13 00:10:31;;;;;;;67.30;29.93;;;;;;;0.32;100.00;104132.69;5068912;28;20491;-66
2022/01/13 00:13:02;;;;;;;86.37;29.70;;;;;;;0.31;100.00;104136.88;5068939;28;20020;-66
2022/01/13 00:15:47;;;;;;;86.23;30.40;;;;;;;0.30;100.00;104141.78;5068172;28;20028;-67
2022/01/13 00:18:15;;;;;;;75.60;28.47;;;;;;;0.28;100.00;104139.03;5069000;28;20039;-66
2022/01/13 00:26:08;;;;;;;65.53;29.77;;;;;;;0.20;100.00;104149.88;5068933;28;20112;-66
2022/01/13 00:28:35;;;;;;;65.05;29.52;;;;;;;0.24;100.00;104152.13;5069091;28;20309;-67
2022/01/13 00:31:04;;;;;;;88.50;31.87;;;;;;;0.25;100.00;104147.94;5068094;28;20074;-67
2022/01/13 00:33:30;;;;;;;79.37;30.10;;;;;;;0.26;100.00;104154.84;5060808;28;20052;-67
2022/01/13 00:35:58;;;;;;;74.70;31.57;;;;;;;0.25;100.00;104145.38;5049164;28;20547;-67
2022/01/13 00:38:25;;;;;;;87.13;31.17;;;;;;;0.27;100.00;104146.50;5049325;28;20086;-67
2022/01/13 00:40:51;;;;;;;90.70;31.17;;;;;;;0.27;100.00;104146.50;5049539;28;20425;-66
2022/01/13 00:43:16;;;;;;;76.17;31.30;;;;;;;0.23;100.00;104137.53;5048162;28;20037;-66
2022/01/13 00:45:42;;;;;;;90.90;32.13;;;;;;;0.21;100.00;104137.34;5050252;28;20117;-66
2022/01/13 00:48:08;;;;;;;68.83;31.43;;;;;;;0.23;100.00;104130.78;5049210;28;20043;-66
2022/01/13 00:50:33;;;;;;;68.93;30.43;;;;;;;0.26;100.00;104129.34;5047809;28;20021;-66
2022/01/13 00:52:58;;;;;;;71.50;30.07;;;;;;;0.29;100.00;104134.88;5049275;28;20074;-66
2022/01/13 00:55:32;;;;;;;75.23;30.47;;;;;;;0.32;100.00;104132.69;5049207;28;20101;-66
2022/01/13 00:57:58;;;;;;;63.83;29.00;;;;;;;0.33;100.00;104129.41;5068498;28;20107;-67
2022/01/13 01:00:23;;;;;;;66.83;29.27;;;;;;;0.30;100.00;104121.38;5065752;28;20100;-66
2022/01/13 01:02:48;;;;;;;61.07;29.50;;;;;;;0.30;100.00;104121.38;5068411;28;20040;-66
2022/01/13 01:05:14;;;;;;;87.37;29.30;;;;;;;0.25;100.00;104125.91;5054776;28;20029;-66
2022/01/13 01:07:39;;;;;;;84.27;29.60;;;;;;;0.12;100.00;104115.75;5049305;28;20021;-66
2022/01/13 01:10:06;;;;;;;72.90;29.17;;;;;;;0.09;100.00;104120.47;5048930;28;20017;-66
2022/01/13 01:12:34;;;;;;;71.57;31.67;;;;;;;0.06;100.00;104114.97;5050697;28;20025;-66
2022/01/13 01:14:59;;;;;;;79.23;30.57;;;;;;;0.06;100.00;104122.59;5051051;28;20021;-66
2022/01/13 01:17:25;;;;;;;73.70;30.13;;;;;;;0.05;100.00;104115.69;5063415;28;20360;-66
2022/01/13 01:19:51;;;;;;;96.57;31.67;;;;;;;0.04;100.00;104121.50;5061272;28;20108;-66
2022/01/13 01:27:22;;;;;;;70.47;30.37;;;;;;;0.06;100.00;104120.06;5058120;28;20037;-66
2022/01/13 01:29:55;;;;;;;71.00;31.27;;;;;;;0.08;100.00;104124.66;5070186;28;20043;-67
2022/01/13 01:32:21;;;;;;;72.03;31.43;;;;;;;0.10;100.00;104127.41;5071574;28;20016;-66
2022/01/13 01:34:56;;;;;;;68.83;31.07;;;;;;;0.11;100.00;104130.13;5070955;28;20047;-66
2022/01/13 01:37:26;;;;;;;61.97;30.33;;;;;;;0.15;100.00;104126.34;5071583;28;20024;-66
2022/01/13 01:39:52;;;;;;;61.90;28.67;;;;;;;0.16;100.00;104128.19;5071604;28;20021;-66
2022/01/13 01:42:20;;;;;;;65.03;29.33;;;;;;;0.18;100.00;104126.72;5052250;28;20035;-66
2022/01/13 01:44:48;;;;;;;63.37;28.93;;;;;;;0.15;100.00;104126.34;5052133;28;20033;-67
2022/01/13 01:47:16;;;;;;;62.07;28.37;;;;;;;0.12;100.00;104118.31;5052201;28;20029;-66
2022/01/13 01:49:48;;;;;;;56.07;26.97;;;;;;;0.06;100.00;104114.97;5052045;28;20465;-66
2022/01/13 01:52:15;;;;;;;76.33;29.10;;;;;;;0.01;100.00;104110.91;5065159;28;20044;-66
2022/01/13 01:54:41;;;;;;;58.40;27.57;;;;;;;-0.02;100.00;104112.34;5052717;28;20086;-66
2022/01/13 01:57:08;;;;;;;58.40;28.37;;;;;;;-0.01;100.00;104109.09;5064810;28;20032;-66
2022/01/13 01:59:37;;;;;;;60.13;27.87;;;;;;;0.02;100.00;104113.66;5071383;28;20027;-66
2022/01/13 02:02:04;;;;;;;60.10;27.90;;;;;;;0.03;100.00;104105.31;5071169;28;20024;-66
2022/01/13 02:04:30;;;;;;;96.40;29.00;;;;;;;-0.02;100.00;104104.69;5063956;28;20045;-66
2022/01/13 02:06:59;;;;;;;65.70;27.47;;;;;;;-0.08;100.00;104111.56;5070974;28;20043;-66
2022/01/13 02:09:25;;;;;;;85.70;27.17;;;;;;;-0.15;100.00;104108.94;5068619;28;20465;-66
2022/01/13 02:11:55;;;;;;;69.40;26.73;;;;;;;-0.17;100.00;104112.94;5071020;28;20025;-66
2022/01/13 02:16:52;;;;;;;59.45;27.30;;;;;;;-0.16;100.00;104112.19;5070981;28;20777;-67
2022/01/13 02:19:18;;;;;;;69.07;27.33;;;;;;;-0.21;100.00;104114.16;5051278;28;20140;-67
2022/01/13 02:21:43;;;;;;;60.20;26.90;;;;;;;-0.21;100.00;104121.81;5055124;28;20107;-67
2022/01/13 02:24:09;;;;;;;71.40;27.30;;;;;;;-0.22;100.00;104122.56;5051486;28;20021;-66
2022/01/13 02:26:34;;;;;;;82.73;28.63;;;;;;;-0.25;100.00;104123.06;5051320;28;20483;-66
2022/01/13 02:29:00;;;;;;;57.10;26.50;;;;;;;-0.21;100.00;104138.75;5050907;28;20021;-66
2022/01/13 02:31:26;;;;;;;56.23;26.30;;;;;;;-0.17;100.00;104125.69;5051147;28;20470;-66
2022/01/13 02:33:53;;;;;;;57.77;25.67;;;;;;;-0.13;100.00;104128.81;5054758;28;20020;-66
2022/01/13 02:36:20;;;;;;;47.37;23.27;;;;;;;-0.11;100.00;104126.50;5064928;28;20032;-66
2022/01/13 02:38:54;;;;;;;52.73;24.50;;;;;;;-0.08;100.00;104126.88;5050214;28;20466;-66
2022/01/13 02:41:23;;;;;;;52.10;24.23;;;;;;;-0.08;100.00;104115.75;5051167;28;20040;-66
2022/01/13 02:43:49;;;;;;;54.00;24.30;;;;;;;-0.09;100.00;104124.13;5051068;28;20028;-66
2022/01/13 02:49:01;;;;;;;71.47;23.47;;;;;;;-0.18;100.00;104123.88;5070291;28;20481;-66
2022/01/13 02:51:27;;;;;;;58.83;23.27;;;;;;;-0.26;100.00;104125.41;5064822;28;20021;-66
2022/01/13 02:53:53;;;;;;;44.30;20.90;;;;;;;-0.23;100.00;104127.47;5061142;28;20032;-66
2022/01/13 02:56:18;;;;;;;45.37;20.93;;;;;;;-0.20;100.00;104122.75;5051001;28;20416;-66
2022/01/13 02:58:45;;;;;;;42.00;21.23;;;;;;;-0.18;100.00;104116.22;5051092;28;20546;-66
2022/01/13 03:01:11;;;;;;;44.20;21.60;;;;;;;-0.15;100.00;104121.69;5053291;28;20024;-66
2022/01/13 03:03:38;;;;;;;51.17;22.23;;;;;;;-0.16;100.00;104128.44;5050493;28;20041;-66
2022/01/13 03:06:13;;;;;;;44.87;22.10;;;;;;;-0.13;100.00;104118.63;5056618;28;20020;-66
2022/01/13 03:08:42;;;;;;;46.40;23.37;;;;;;;-0.12;100.00;104119.53;5067747;28;20706;-66
2022/01/13 03:11:07;;;;;;;41.63;21.70;;;;;;;-0.09;100.00;104119.03;5069812;28;20044;-66
2022/01/13 03:13:33;;;;;;;51.33;22.77;;;;;;;-0.10;100.00;104106.97;5068706;28;20041;-66
2022/01/13 03:15:58;;;;;;;66.67;22.53;;;;;;;-0.12;100.00;104101.69;5069588;28;20036;-66
2022/01/13 03:18:24;;;;;;;45.83;22.63;;;;;;;-0.12;100.00;104094.03;5064939;28;20044;-66
2022/01/13 03:20:49;;;;;;;50.33;23.30;;;;;;;-0.08;100.00;104103.00;5069649;28;20519;-66
2022/01/13 03:23:17;;;;;;;43.87;21.77;;;;;;;-0.07;100.00;104102.31;5061838;28;20060;-66
2022/01/13 03:25:45;;;;;;;49.97;22.20;;;;;;;-0.04;100.00;104108.72;5049012;28;20491;-66
2022/01/13 03:28:16;;;;;;;44.23;21.77;;;;;;;-0.02;100.00;104106.34;5050414;28;20074;-66
2022/01/13 03:30:43;;;;;;;49.22;22.85;;;;;;;-0.01;100.00;104098.88;5062492;28;20028;-66
2022/01/13 03:33:09;;;;;;;47.57;22.20;;;;;;;0.01;100.00;104100.72;5069415;28;20472;-66
2022/01/13 03:35:36;;;;;;;48.87;22.30;;;;;;;0.02;100.00;104100.91;5069217;28;20039;-66
2022/01/13 03:38:03;;;;;;;42.33;22.30;;;;;;;0.05;100.00;104097.84;5067199;28;20032;-66
2022/01/13 03:40:29;;;;;;;53.17;24.70;;;;;;;0.05;100.00;104091.13;5068455;28;20060;-66
2022/01/13 03:42:54;;;;;;;56.83;23.17;;;;;;;0.05;100.00;104097.84;5069348;28;20052;-66
2022/01/13 03:45:20;;;;;;;44.60;22.53;;;;;;;0.05;100.00;104095.28;5068011;28;20423;-66
2022/01/13 03:47:46;;;;;;;69.63;24.57;;;;;;;0.02;100.00;104094.91;5069242;28;20500;-66
2022/01/13 03:50:12;;;;;;;50.97;24.17;;;;;;;-0.02;100.00;104096.16;5067599;28;20028;-66
2022/01/13 03:52:57;;;;;;;44.47;22.37;;;;;;;-0.05;100.00;104091.56;5052193;28;20238;-66
2022/01/13 03:55:35;;;;;;;67.90;25.67;;;;;;;-0.08;100.00;104098.81;5054959;28;20037;-66
2022/01/13 03:58:22;;;;;;;60.50;24.20;;;;;;;-0.10;100.00;104087.50;5057314;28;20060;-66
2022/01/13 04:01:06;;;;;;;60.10;24.10;;;;;;;-0.13;100.00;104090.56;5067731;28;20032;-67
2022/01/13 04:03:31;;;;;;;68.37;26.33;;;;;;;-0.11;100.00;104100.06;5068725;28;20135;-66
2022/01/13 04:05:59;;;;;;;58.30;25.53;;;;;;;-0.14;100.00;104092.91;5068984;28;20135;-66
2022/01/13 04:08:24;;;;;;;70.03;26.93;;;;;;;-0.15;100.00;104091.09;5068862;28;20101;-66
2022/01/13 04:10:52;;;;;;;55.77;26.17;;;;;;;-0.14;100.00;104091.28;5068817;28;20052;-66
2022/01/13 04:13:44;;;;;;;70.70;28.20;;;;;;;-0.12;100.00;104091.50;5069066;28;20484;-66
2022/01/13 04:16:10;;;;;;;73.30;28.67;;;;;;;-0.13;100.00;104080.38;5062899;28;20042;-67
2022/01/13 04:18:35;;;;;;;76.37;29.83;;;;;;;-0.13;100.00;104084.56;5068847;28;20024;-67
2022/01/13 04:21:01;;;;;;;73.97;29.57;;;;;;;-0.13;100.00;104082.91;5068484;28;20016;-66
2022/01/13 04:23:26;;;;;;;79.20;29.53;;;;;;;-0.10;100.00;104082.41;5058301;28;20029;-66
2022/01/13 04:25:52;;;;;;;100.23;32.30;;;;;;;-0.13;100.00;104076.91;5068977;28;20048;-66
2022/01/13 04:28:17;;;;;;;81.60;29.23;;;;;;;-0.13;100.00;104088.00;5068753;28;20161;-66
2022/01/13 04:33:08;;;;;;;121.27;33.53;;;;;;;-0.15;100.00;104089.47;5068701;28;20023;-66
2022/01/13 04:35:33;;;;;;;78.27;30.23;;;;;;;-0.18;100.00;104078.88;5065331;28;20032;-66
2022/01/13 04:37:59;;;;;;;138.23;34.07;;;;;;;-0.22;100.00;104078.28;5068210;28;20021;-66
2022/01/13 04:40:25;;;;;;;100.57;33.47;;;;;;;-0.22;100.00;104075.75;5050252;28;20163;-66
2022/01/13 04:42:54;;;;;;;95.00;33.53;;;;;;;-0.21;100.00;104085.19;5049352;28;20029;-66
2022/01/13 04:45:20;;;;;;;116.70;33.67;;;;;;;-0.23;100.00;104077.38;5049390;28;20017;-66
2022/01/13 04:47:47;;;;;;;95.80;31.10;;;;;;;-0.27;100.00;104078.59;5049417;28;20021;-66
2022/01/13 04:50:12;;;;;;;103.20;32.47;;;;;;;-0.34;100.00;104072.53;5049854;28;20423;-66
2022/01/13 04:52:38;;;;;;;113.43;35.10;;;;;;;-0.36;100.00;104077.44;5062407;28;20036;-66
2022/01/13 04:55:09;;;;;;;97.43;31.20;;;;;;;-0.34;100.00;104072.53;5053279;28;20025;-66
2022/01/13 04:57:35;;;;;;;107.87;32.10;;;;;;;-0.35;100.00;104065.59;5070960;28;20032;-66
2022/01/13 05:00:00;;;;;;;117.33;33.80;;;;;;;-0.37;100.00;104067.94;5072269;28;20020;-66
2022/01/13 05:02:25;;;;;;;95.13;32.63;;;;;;;-0.35;100.00;104063.03;5072143;28;20028;-66
2022/01/13 05:04:51;;;;;;;137.10;36.13;;;;;;;-0.35;100.00;104063.97;5071921;28;20105;-66
2022/01/13 05:07:16;;;;;;;108.83;36.40;;;;;;;-0.33;100.00;104069.25;5072148;28;20033;-66
2022/01/13 05:09:41;;;;;;;111.87;36.07;;;;;;;-0.29;100.00;104074.94;5072362;28;20545;-66
2022/01/13 05:12:07;;;;;;;123.87;36.30;;;;;;;-0.28;100.00;104071.69;5063031;28;20060;-66
2022/01/13 05:14:33;;;;;;;148.23;37.63;;;;;;;-0.30;100.00;104073.13;5053366;28;20029;-66
2022/01/13 05:17:09;;;;;;;132.60;38.13;;;;;;;-0.26;100.00;104085.56;5064969;28;20032;-66
2022/01/13 05:19:40;;;;;;;138.03;37.63;;;;;;;-0.26;100.00;104080.44;5071916;28;20454;-66
2022/01/13 05:24:36;;;;;;;147.10;36.10;;;;;;;-0.29;100.00;104077.47;5069618;28;20040;-66
2022/01/13 05:27:02;;;;;;;114.33;34.23;;;;;;;-0.28;100.00;104076.78;5067948;28;20031;-66
2022/01/13 05:29:27;;;;;;;112.13;35.13;;;;;;;-0.31;100.00;104076.41;5053107;28;20119;-66
2022/01/13 05:31:53;;;;;;;135.93;36.97;;;;;;;-0.30;100.00;104078.22;5051189;28;20021;-66
2022/01/13 05:34:18;;;;;;;117.30;35.67;;;;;;;-0.27;100.00;104073.50;5052521;28;20064;-66
2022/01/13 05:36:44;;;;;;;155.90;36.83;;;;;;;-0.27;100.00;104080.25;5052306;28;20029;-66
2022/01/13 05:39:11;;;;;;;116.60;36.07;;;;;;;-0.27;100.00;104070.06;5053954;28;20115;-66
2022/01/13 05:41:36;;;;;;;137.17;36.23;;;;;;;-0.27;100.00;104078.59;5052310;28;20032;-66
2022/01/13 05:44:02;;;;;;;123.50;35.50;;;;;;;-0.25;100.00;104071.16;5052232;28;20024;-66
2022/01/13 05:46:28;;;;;;;121.17;35.83;;;;;;;-0.23;100.00;104076.47;5057836;28;20476;-66
2022/01/13 05:48:56;;;;;;;120.93;33.67;;;;;;;-0.21;100.00;104077.56;5071814;28;20082;-67
2022/01/13 05:51:22;;;;;;;116.97;33.80;;;;;;;-0.23;100.00;104076.47;5067119;28;20055;-67
2022/01/13 05:53:48;;;;;;;126.27;35.10;;;;;;;-0.23;100.00;104074.81;5063342;28;20027;-66
2022/01/13 05:56:14;;;;;;;113.57;34.10;;;;;;;-0.21;100.00;104077.56;5052107;28;20457;-66
2022/01/13 05:58:39;;;;;;;112.47;34.57;;;;;;;-0.18;100.00;104077.97;5054688;28;20029;-66
2022/01/13 06:01:05;;;;;;;115.20;34.37;;;;;;;-0.18;100.00;104075.41;5059308;28;20526;-66
2022/01/13 06:03:31;;;;;;;111.33;33.00;;;;;;;-0.19;100.00;104073.56;5055639;28;20477;-66
2022/01/13 06:05:56;;;;;;;125.87;32.87;;;;;;;-0.16;100.00;104081.59;5052475;28;20043;-66
2022/01/13 06:08:21;;;;;;;151.63;36.53;;;;;;;-0.19;100.00;104076.13;5051807;28;20223;-66
2022/01/13 06:10:48;;;;;;;125.10;36.67;;;;;;;-0.20;100.00;104079.41;5054119;28;20028;-66
2022/01/13 06:13:13;;;;;;;123.57;36.37;;;;;;;-0.21;100.00;104078.47;5052028;28;20030;-66
2022/01/13 06:15:39;;;;;;;117.10;33.90;;;;;;;-0.21;100.00;104077.56;5057284;28;20029;-66
2022/01/13 06:18:13;;;;;;;134.10;37.17;;;;;;;-0.18;100.00;104077.97;5056306;28;20415;-66
2022/01/13 06:20:40;;;;;;;129.40;35.67;;;;;;;-0.16;100.00;104076.50;5062679;28;20086;-66
2022/01/13 06:23:07;;;;;;;122.10;36.33;;;;;;;-0.15;100.00;104063.06;5069067;28;20024;-66
2022/01/13 06:25:33;;;;;;;125.83;35.33;;;;;;;-0.14;100.00;104069.97;5055855;28;20025;-66
2022/01/13 06:27:58;;;;;;;130.50;35.30;;;;;;;-0.17;100.00;104065.41;5061060;28;20036;-66
2022/01/13 06:30:23;;;;;;;137.57;37.67;;;;;;;-0.16;100.00;104064.69;5053986;28;20086;-67
2022/01/13 06:32:49;;;;;;;193.57;40.97;;;;;;;-0.18;100.00;104067.78;5049899;28;20021;-66
2022/01/13 06:35:14;;;;;;;216.20;40.43;;;;;;;-0.21;100.00;104067.34;5053503;28;20122;-66
2022/01/13 06:37:41;;;;;;;140.70;37.33;;;;;;;-0.24;100.00;104055.16;5050658;28;20523;-66
2022/01/13 06:40:08;;;;;;;130.63;36.43;;;;;;;-0.23;100.00;104066.28;5051372;28;20041;-66
2022/01/13 06:42:33;;;;;;;126.63;37.67;;;;;;;-0.21;100.00;104057.16;5050907;28;20484;-66
2022/01/13 06:44:58;;;;;;;139.47;38.10;;;;;;;-0.17;100.00;104067.03;5051169;28;20033;-66
2022/01/13 06:47:24;;;;;;;139.40;35.23;;;;;;;-0.17;100.00;104070.50;5051114;28;20079;-66
2022/01/13 06:49:50;;;;;;;149.40;37.73;;;;;;;-0.15;100.00;104070.72;5061866;28;20027;-66
2022/01/13 06:52:17;;;;;;;163.93;35.80;;;;;;;-0.17;100.00;104069.59;5052929;28;20387;-66
2022/01/13 06:54:42;;;;;;;146.70;33.73;;;;;;;-0.16;100.00;104072.34;5057529;28;20033;-66
2022/01/13 06:57:08;;;;;;;124.43;33.63;;;;;;;-0.17;100.00;104065.41;5058006;28;20036;-66
2022/01/13 06:59:33;;;;;;;139.70;37.53;;;;;;;-0.17;100.00;104070.50;5049989;28;20082;-66
2022/01/13 07:02:00;;;;;;;109.37;32.87;;;;;;;-0.20;100.00;104059.94;5050433;28;20025;-66
2022/01/13 07:04:27;;;;;;;123.00;34.30;;;;;;;-0.17;100.00;104064.50;5063305;28;20098;-66
2022/01/13 07:06:52;;;;;;;130.10;34.87;;;;;;;-0.16;100.00;104053.56;5069293;28;20999;-66
2022/01/13 07:09:18;;;;;;;115.00;33.60;;;;;;;-0.13;100.00;104059.97;5050810;28;20170;-66
2022/01/13 07:11:45;;;;;;;107.03;31.93;;;;;;;-0.11;100.00;104070.38;5050685;28;20025;-66
2022/01/13 07:14:10;;;;;;;104.47;33.20;;;;;;;-0.10;100.00;104062.00;5050901;28;20021;-66
2022/01/13 07:16:36;;;;;;;116.63;33.80;;;;;;;-0.07;100.00;104067.50;5051675;28;20397;-66
2022/01/13 07:19:05;;;;;;;121.90;35.47;;;;;;;-0.10;100.00;104074.75;5067858;28;20067;-66
2022/01/13 07:21:31;;;;;;;115.30;34.57;;;;;;;-0.09;100.00;104074.03;5053717;28;20146;-66
2022/01/13 07:23:57;;;;;;;120.77;35.20;;;;;;;-0.08;100.00;104080.03;5056533;28;20032;-66
2022/01/13 07:26:22;;;;;;;156.17;34.57;;;;;;;-0.10;100.00;104074.75;5052031;28;20038;-66
2022/01/13 07:28:48;;;;;;;211.53;39.23;;;;;;;-0.17;100.00;104075.63;5056966;28;20143;-66
2022/01/13 07:31:14;;;;;;;129.03;33.10;;;;;;;-0.17;100.00;104074.69;5056311;28;20040;-66
2022/01/13 07:33:41;;;;;;;89.50;30.83;;;;;;;-0.17;100.00;104064.50;5056796;28;20082;-66
2022/01/13 07:36:06;;;;;;;110.77;31.37;;;;;;;-0.18;100.00;104062.69;5056045;28;20438;-66
2022/01/13 07:38:31;;;;;;;112.13;34.03;;;;;;;-0.16;100.00;104068.84;5057250;28;20028;-66
2022/01/13 07:40:57;;;;;;;130.70;32.90;;;;;;;-0.20;100.00;104059.00;5052031;28;20043;-66
2022/01/13 07:43:24;;;;;;;103.60;32.07;;;;;;;-0.19;100.00;104071.94;5055883;28;20041;-66
2022/01/13 07:45:51;;;;;;;127.30;31.53;;;;;;;-0.22;100.00;104069.00;5055433;28;20500;-66
2022/01/13 07:48:16;;;;;;;159.53;33.23;;;;;;;-0.25;100.00;104071.16;5054233;28;20123;-66
2022/01/13 07:50:42;;;;;;;155.77;33.40;;;;;;;-0.26;100.00;104072.81;5051571;28;20121;-66
2022/01/13 07:53:08;;;;;;;94.30;30.47;;;;;;;-0.23;100.00;104079.03;5048568;28;20033;-66
2022/01/13 07:55:34;;;;;;;124.53;31.13;;;;;;;-0.22;100.00;104078.28;5048884;28;20087;-66
2022/01/13 07:57:59;;;;;;;113.23;33.97;;;;;;;-0.22;100.00;104085.94;5060195;28;20032;-66
2022/01/13 08:00:24;;;;;;;117.23;30.93;;;;;;;-0.20;100.00;104081.94;5050658;28;20524;-65
2022/01/13 08:02:49;;;;;;;110.50;31.53;;;;;;;-0.20;100.00;104076.84;5058150;28;20512;-66
2022/01/13 08:05:15;;;;;;;152.73;33.60;;;;;;;-0.18;100.00;104078.88;5061337;28;20098;-66
2022/01/13 08:07:40;;;;;;;99.40;31.83;;;;;;;-0.16;100.00;104086.69;5049915;28;20528;-65
2022/01/13 08:10:06;;;;;;;134.53;32.47;;;;;;;-0.16;100.00;104084.16;5054806;28;20047;-65
2022/01/13 08:12:32;;;;;;;150.73;32.57;;;;;;;-0.18;100.00;104086.50;5056862;28;20075;-65
2022/01/13 08:14:57;;;;;;;167.80;34.33;;;;;;;-0.17;100.00;104084.88;5052595;28;20040;-64
2022/01/13 08:20:08;;;;;;;93.60;29.37;;;;;;;-0.13;100.00;104090.56;5051223;28;20382;-64
2022/01/13 08:22:34;;;;;;;106.13;29.90;;;;;;;-0.11;100.00;104090.78;5051780;28;20021;-64
2022/01/13 08:25:00;;;;;;;123.07;30.87;;;;;;;-0.11;100.00;104098.44;5053620;28;20035;-64
2022/01/13 08:27:25;;;;;;;90.20;29.73;;;;;;;-0.08;100.00;104090.25;5052226;28;20052;-63
2022/01/13 08:29:51;;;;;;;89.90;29.43;;;;;;;-0.07;100.00;104102.31;5054549;28;20544;-63
2022/01/13 08:32:18;;;;;;;89.83;29.53;;;;;;;-0.03;100.00;104102.88;5048861;28;20070;-63
2022/01/13 08:34:44;;;;;;;87.80;30.97;;;;;;;0.02;100.00;104100.00;5053530;28;20162;-63
2022/01/13 08:37:09;;;;;;;118.97;31.97;;;;;;;0.06;100.00;104105.69;5055126;28;20111;-63
2022/01/13 08:39:42;;;;;;;108.80;31.53;;;;;;;0.15;100.00;104110.13;5051848;28;20032;-62
2022/01/13 08:42:07;;;;;;;104.03;30.93;;;;;;;0.22;100.00;104102.53;5054166;28;20051;-62
2022/01/13 08:44:32;;;;;;;87.97;31.47;;;;;;;0.28;100.00;104107.50;5049185;28;20040;-64
2022/01/13 08:46:57;;;;;;;160.00;34.87;;;;;;;0.29;100.00;104104.25;5048776;28;20122;-65
2022/01/13 08:49:23;;;;;;;211.97;94.87;;;;;;;0.29;100.00;104114.44;5062447;28;20242;-65
2022/01/13 08:51:48;;;;;;;254.33;128.23;;;;;;;0.31;100.00;104118.06;5061503;28;20421;-66
2022/01/13 08:54:13;;;;;;;91.30;37.43;;;;;;;0.34;100.00;104121.03;5050099;28;20037;-65
2022/01/13 08:56:39;;;;;;;83.33;30.77;;;;;;;0.31;100.00;104107.88;5053379;28;20040;-65
2022/01/13 08:59:05;;;;;;;87.10;30.57;;;;;;;0.28;100.00;104120.25;5055967;28;20051;-65
2022/01/13 09:01:30;;;;;;;109.07;43.10;;;;;;;0.32;100.00;104123.41;5053111;28;20499;-65
2022/01/13 09:03:57;;;;;;;93.23;32.10;;;;;;;0.37;100.00;104126.53;5051656;28;20041;-64
2022/01/13 09:06:22;;;;;;;113.67;32.63;;;;;;;0.40;100.00;104126.91;5050424;28;20445;-65
2022/01/13 09:08:48;;;;;;;158.27;33.10;;;;;;;0.32;100.00;104119.94;5057277;28;20223;-65
2022/01/13 09:11:13;;;;;;;168.97;92.20;;;;;;;0.28;100.00;104122.81;5068179;28;20098;-67
2022/01/13 09:13:38;;;;;;;558.33;487.97;;;;;;;0.38;100.00;104125.78;5064843;28;20034;-67
2022/01/13 09:16:13;;;;;;;181.27;44.07;;;;;;;0.38;100.00;104125.78;5051801;28;20427;-67
2022/01/13 09:21:19;;;;;;;76.72;28.67;;;;;;;0.38;100.00;104130.00;5049012;28;20477;-66
2022/01/13 09:23:45;;;;;;;132.90;33.00;;;;;;;0.35;100.00;104126.34;5048978;28;20056;-66
2022/01/13 09:26:10;;;;;;;174.00;35.23;;;;;;;0.31;100.00;104129.22;5053481;28;20017;-67
2022/01/13 09:28:35;;;;;;;93.17;32.03;;;;;;;0.34;100.00;104131.25;5058365;28;20082;-66
2022/01/13 09:31:01;;;;;;;137.67;33.73;;;;;;;0.37;100.00;104133.25;5056150;28;20547;-67
2022/01/13 09:33:27;;;;;;;121.37;33.20;;;;;;;0.37;100.00;104134.19;5048147;28;20025;-67
2022/01/13 09:35:52;;;;;;;89.60;30.20;;;;;;;0.40;100.00;104134.56;5058998;28;20070;-67
2022/01/13 09:38:17;;;;;;;159.97;32.13;;;;;;;0.38;100.00;104124.91;5059157;28;20037;-66
2022/01/13 09:40:45;;;;;;;176.80;33.50;;;;;;;0.38;100.00;104133.44;5054744;28;20033;-67
2022/01/13 09:43:11;;;;;;;96.97;31.17;;;;;;;0.39;100.00;104134.38;5056013;28;20096;-67
2022/01/13 09:45:36;;;;;;;94.20;30.73;;;;;;;0.42;100.00;104133.13;5053755;28;20547;-67
2022/01/13 09:48:02;;;;;;;107.30;31.10;;;;;;;0.45;100.00;104130.97;5053261;28;20025;-67
2022/01/13 09:50:27;;;;;;;100.43;31.50;;;;;;;0.45;100.00;104130.06;5052865;28;20025;-67
2022/01/13 09:52:53;;;;;;;104.73;30.97;;;;;;;0.46;100.00;104134.44;5051502;28;20043;-68
2022/01/13 09:55:19;;;;;;;129.40;30.33;;;;;;;0.46;100.00;104135.34;5055688;28;20029;-67
2022/01/13 09:57:48;;;;;;;128.97;31.57;;;;;;;0.48;100.00;104135.53;5057146;28;20033;-67
2022/01/13 10:00:18;;;;;;;94.93;30.00;;;;;;;0.50;100.00;104131.56;5057200;28;20055;-66
2022/01/13 10:02:44;;;;;;;163.90;33.77;;;;;;;0.49;100.00;104139.03;5056943;28;20050;-67
2022/01/13 10:05:09;;;;;;;82.87;27.83;;;;;;;0.46;100.00;104135.34;5056718;28;20283;-67
2022/01/13 10:07:41;;;;;;;92.67;28.07;;;;;;;0.45;100.00;104138.59;5053699;28;20111;-68
2022/01/13 10:10:16;;;;;;;122.97;30.83;;;;;;;0.44;100.00;104134.25;5055196;28;20047;-67
2022/01/13 10:12:44;;;;;;;92.07;28.53;;;;;;;0.43;100.00;104134.94;5051097;28;20025;-67
2022/01/13 10:18:06;;;;;;;192.67;31.93;;;;;;;0.41;100.00;104138.03;5061788;28;20048;-67
2022/01/13 10:20:33;;;;;;;180.27;32.80;;;;;;;0.39;100.00;104142.97;5053501;28;20039;-68
2022/01/13 10:23:12;;;;;;;78.67;27.07;;;;;;;0.42;100.00;104134.75;5055102;28;20031;-67
2022/01/13 10:25:40;;;;;;;87.20;27.77;;;;;;;0.46;100.00;104130.25;5056833;28;20036;-67
2022/01/13 10:28:22;;;;;;;88.73;28.97;;;;;;;0.52;100.00;104134.31;5057290;28;20561;-67
2022/01/13 10:30:51;;;;;;;102.30;28.90;;;;;;;0.53;100.00;104138.66;5053612;28;20112;-67
2022/01/13 10:33:21;;;;;;;135.60;31.60;;;;;;;0.55;100.00;104135.59;5057767;28;20268;-67
2022/01/13 10:35:49;;;;;;;84.87;27.40;;;;;;;0.63;100.00;104133.09;5052955;28;20025;-67
2022/01/13 10:38:16;;;;;;;105.20;30.07;;;;;;;0.68;100.00;104143.19;5058637;28;20033;-66
2022/01/13 10:40:47;;;;;;;90.20;30.03;;;;;;;0.67;100.00;104138.78;5059293;28;20164;-66
2022/01/13 10:43:15;;;;;;;287.65;149.32;;;;;;;0.75;100.00;104138.81;5055058;28;20111;-66
2022/01/13 10:45:49;;;;;;;116.53;37.07;;;;;;;0.78;100.00;104139.19;5056264;28;20430;-66
2022/01/13 10:48:23;;;;;;;108.80;41.27;;;;;;;0.80;100.00;104128.47;5061742;28;20143;-66
2022/01/13 10:50:56;;;;;;;83.27;29.33;;;;;;;0.81;100.00;104132.84;5058667;28;20100;-66
2022/01/13 10:53:31;;;;;;;111.87;30.37;;;;;;;0.76;100.00;104128.78;5055790;28;20021;-66
2022/01/13 10:56:01;;;;;;;81.80;27.70;;;;;;;0.71;100.00;104130.78;5054632;28;20032;-66
2022/01/13 10:58:29;;;;;;;89.00;28.77;;;;;;;0.64;100.00;104130.75;5059846;28;20198;-66
2022/01/13 11:00:57;;;;;;;91.53;28.63;;;;;;;0.69;100.00;104123.63;5057390;28;20074;-66
2022/01/13 11:03:26;;;;;;;104.67;29.33;;;;;;;0.71;100.00;104118.03;5058494;28;20045;-66
2022/01/13 11:06:03;;;;;;;115.93;30.93;;;;;;;0.74;100.00;104111.47;5057231;28;20048;-67
2022/01/13 11:08:32;;;;;;;105.03;30.43;;;;;;;0.79;100.00;104100.19;5056367;28;20032;-65
2022/01/13 11:11:03;;;;;;;123.07;45.13;;;;;;;0.85;100.00;104100.94;5058895;28;20040;-68
2022/01/13 11:13:32;;;;;;;120.65;48.67;;;;;;;0.89;100.00;104100.59;5063661;28;20051;-67
2022/01/13 11:15:58;;;;;;;111.57;30.93;;;;;;;0.95;100.00;104105.56;5054885;28;20360;-67
2022/01/13 11:18:27;;;;;;;145.00;64.13;;;;;;;0.99;100.00;104100.09;5060897;28;20021;-67
2022/01/13 11:20:54;;;;;;;137.20;31.87;;;;;;;0.90;100.00;104094.75;5052595;28;20028;-67
2022/01/13 11:23:20;;;;;;;94.47;29.23;;;;;;;0.94;100.00;104089.31;5063775;28;20489;-68
2022/01/13 11:25:47;;;;;;;98.90;29.77;;;;;;;0.97;100.00;104080.22;5057645;28;20025;-68
2022/01/13 11:28:14;;;;;;;84.20;29.10;;;;;;;0.95;100.00;104077.47;5062045;28;20048;-67
2022/01/13 11:30:40;;;;;;;87.03;29.00;;;;;;;0.90;100.00;104082.00;5054509;28;20055;-67